createdAt,value
2019-05-20T00:00:34.000Z,15.70
2019-05-20T00:01:41.257Z,15.03
2019-05-20T00:02:49.258Z,15.63
2019-05-20T00:03:56.432Z,15.70
2019-05-20T00:05:04.420Z,16.70
2019-05-20T00:06:11.465Z,15.63
2019-05-20T00:07:19.447Z,17.00
2019-05-20T00:08:26.232Z,15.73
2019-05-20T00:09:34.484Z,15.53
2019-05-20T00:10:41.249Z,16.10
2019-05-20T00:11:49.092Z,16.20
2019-05-20T00:12:56.234Z,16.80
2019-05-20T00:14:03.926Z,16.67
2019-05-20T00:15:11.071Z,16.07
2019-05-20T00:16:19.086Z,15.87
2019-05-20T00:17:25.830Z,15.50
2019-05-20T00:18:33.443Z,16.10
2019-05-20T00:19:40.555Z,16.77
2019-05-20T00:20:48.418Z,15.87
2019-05-20T00:21:55.305Z,15.80
2019-05-20T00:23:03.374Z,14.83
2019-05-20T00:24:10.490Z,16.60
2019-05-20T00:25:18.174Z,16.40
2019-05-20T00:26:24.920Z,16.63
2019-05-20T00:27:32.798Z,15.50
2019-05-20T00:28:39.950Z,17.23
2019-05-20T00:29:48.154Z,17.10
2019-05-20T00:30:55.467Z,15.70
2019-05-20T00:32:03.410Z,17.73
2019-05-20T00:33:10.505Z,18.47
2019-05-20T00:34:32.713Z,17.47
2019-05-20T00:35:28.817Z,17.50
2019-05-20T00:36:36.421Z,16.70
2019-05-20T00:37:43.542Z,18.00
2019-05-20T00:39:09.488Z,16.87
2019-05-20T00:40:16.688Z,16.03
2019-05-20T00:41:24.559Z,15.60
2019-05-20T00:42:31.483Z,15.97
2019-05-20T00:43:39.292Z,16.40
2019-05-20T00:44:46.376Z,16.40
2019-05-20T00:45:53.905Z,16.90
2019-05-20T00:47:00.644Z,16.90
2019-05-20T00:48:08.274Z,17.13
2019-05-20T00:49:15.020Z,16.47
2019-05-20T00:50:22.796Z,17.73
2019-05-20T00:51:29.575Z,18.53
2019-05-20T00:52:37.265Z,16.57
2019-05-20T00:53:44.634Z,18.97
2019-05-20T00:54:52.714Z,19.70
2019-05-20T00:56:00.238Z,17.67
2019-05-20T00:57:08.122Z,18.40
2019-05-20T00:58:15.306Z,18.37
2019-05-20T00:59:23.151Z,17.80
2019-05-20T01:00:30.787Z,17.83
2019-05-20T01:01:38.897Z,18.57
2019-05-20T01:02:56.391Z,19.73
2019-05-20T01:03:55.204Z,19.50
2019-05-20T01:05:02.447Z,20.47
2019-05-20T01:06:09.967Z,18.43
2019-05-20T01:07:17.050Z,18.00
2019-05-20T01:08:24.558Z,20.53
2019-05-20T01:09:32.135Z,21.40
2019-05-20T01:10:40.255Z,21.60
2019-05-20T01:11:47.033Z,21.40
2019-05-20T01:12:54.653Z,21.10
2019-05-20T01:14:01.860Z,21.33
2019-05-20T01:15:10.006Z,21.33
2019-05-20T01:16:17.161Z,20.57
2019-05-20T01:17:25.157Z,20.50
2019-05-20T01:18:32.337Z,21.00
2019-05-20T01:19:39.869Z,20.00
2019-05-20T01:20:47.518Z,18.83
2019-05-20T01:21:55.422Z,18.90
2019-05-20T01:23:02.181Z,18.13
2019-05-20T01:24:10.082Z,19.57
2019-05-20T01:25:16.944Z,18.70
2019-05-20T01:26:24.626Z,20.53
2019-05-20T01:27:31.416Z,20.30
2019-05-20T01:28:39.327Z,19.30
2019-05-20T01:29:46.079Z,19.70
2019-05-20T01:30:53.700Z,19.67
2019-05-20T01:32:00.858Z,20.60
2019-05-20T01:33:13.864Z,21.90
2019-05-20T01:34:17.479Z,19.30
2019-05-20T01:35:25.712Z,20.73
2019-05-20T01:36:32.776Z,20.67
2019-05-20T01:37:40.482Z,21.53
2019-05-20T01:38:47.259Z,24.30
2019-05-20T01:39:55.610Z,22.90
2019-05-20T01:41:02.706Z,22.10
2019-05-20T01:42:10.243Z,22.60
2019-05-20T01:43:17.022Z,22.07
2019-05-20T01:44:24.890Z,23.43
2019-05-20T01:45:32.083Z,22.40
2019-05-20T01:46:39.945Z,22.90
2019-05-20T01:47:46.692Z,20.50
2019-05-20T01:48:54.604Z,21.33
2019-05-20T01:50:01.384Z,24.33
2019-05-20T01:51:09.156Z,23.50
2019-05-20T01:52:16.119Z,23.03
2019-05-20T01:53:23.641Z,23.83
2019-05-20T01:54:32.078Z,24.40
2019-05-20T01:55:40.210Z,24.67
2019-05-20T01:56:46.983Z,23.97
2019-05-20T01:57:54.474Z,26.20
2019-05-20T01:59:01.473Z,24.87
2019-05-20T02:00:11.362Z,25.57
2019-05-20T02:01:18.491Z,24.57
2019-05-20T02:02:26.418Z,23.40
2019-05-20T02:03:33.199Z,21.60
2019-05-20T02:04:40.964Z,24.33
2019-05-20T02:05:48.060Z,21.77
2019-05-20T02:06:55.757Z,25.87
2019-05-20T02:08:02.840Z,30.50
2019-05-20T02:09:11.693Z,29.97
2019-05-20T02:10:19.022Z,29.20
2019-05-20T02:11:26.625Z,30.77
2019-05-20T02:12:33.409Z,32.30
2019-05-20T02:13:56.645Z,31.03
2019-05-20T02:15:25.582Z,32.03
2019-05-20T02:16:32.417Z,32.53
2019-05-20T02:17:40.670Z,34.23
2019-05-20T02:18:47.758Z,33.63
2019-05-20T02:19:55.342Z,34.90
2019-05-20T02:21:02.148Z,38.43
2019-05-20T02:22:10.194Z,37.83
2019-05-20T02:23:17.242Z,39.97
2019-05-20T02:24:24.925Z,39.67
2019-05-20T02:25:31.698Z,39.40
2019-05-20T02:26:39.237Z,43.47
2019-05-20T02:27:46.004Z,41.20
2019-05-20T02:28:53.530Z,45.40
2019-05-20T02:30:00.864Z,44.30
2019-05-20T02:31:08.412Z,46.07
2019-05-20T02:32:15.297Z,47.27
2019-05-20T02:33:22.804Z,49.30
2019-05-20T02:34:29.577Z,47.07
2019-05-20T02:35:39.210Z,47.40
2019-05-20T02:36:46.372Z,46.63
2019-05-20T02:37:53.877Z,49.13
2019-05-20T02:39:01.348Z,48.77
2019-05-20T02:40:09.696Z,47.87
2019-05-20T02:41:16.600Z,50.90
2019-05-20T02:42:24.123Z,45.87
2019-05-20T02:43:31.271Z,50.27
2019-05-20T02:44:38.861Z,49.60
2019-05-20T02:45:45.678Z,49.40
2019-05-20T02:46:53.220Z,47.87
2019-05-20T02:48:00.016Z,47.70
2019-05-20T02:49:07.587Z,49.10
2019-05-20T02:50:15.632Z,48.03
2019-05-20T02:51:41.290Z,50.00
2019-05-20T02:52:48.719Z,49.87
2019-05-20T02:53:56.265Z,47.43
2019-05-20T02:55:04.142Z,47.80
2019-05-20T02:56:11.705Z,49.60
2019-05-20T02:57:18.733Z,46.07
2019-05-20T02:58:26.557Z,47.60
2019-05-20T02:59:33.328Z,48.10
2019-05-20T03:00:40.838Z,51.13
2019-05-20T03:01:47.609Z,49.97
2019-05-20T03:02:55.404Z,49.90
2019-05-20T03:04:11.718Z,47.80
2019-05-20T03:05:11.893Z,48.53
2019-05-20T03:06:18.657Z,48.93
2019-05-20T03:07:26.571Z,46.77
2019-05-20T03:08:33.744Z,50.27
2019-05-20T03:09:41.249Z,48.40
2019-05-20T03:10:48.432Z,48.50
2019-05-20T03:11:56.300Z,48.90
2019-05-20T03:13:03.784Z,48.33
2019-05-20T03:14:11.311Z,47.70
2019-05-20T03:15:18.358Z,47.50
2019-05-20T03:16:26.211Z,45.93
2019-05-20T03:17:33.365Z,47.20
2019-05-20T03:18:41.543Z,47.10
2019-05-20T03:19:48.297Z,46.10
2019-05-20T03:20:55.809Z,45.97
2019-05-20T03:22:02.893Z,45.40
2019-05-20T03:23:10.860Z,45.33
2019-05-20T03:24:17.616Z,46.03
2019-05-20T03:25:25.468Z,43.97
2019-05-20T03:26:32.283Z,44.90
2019-05-20T03:27:40.121Z,44.83
2019-05-20T03:28:47.810Z,48.13
2019-05-20T03:29:56.035Z,40.50
2019-05-20T03:31:02.808Z,44.07
2019-05-20T03:32:10.307Z,40.90
2019-05-20T03:33:17.465Z,40.17
2019-05-20T03:34:45.741Z,40.93
2019-05-20T03:35:33.688Z,40.23
2019-05-20T03:36:41.551Z,39.77
2019-05-20T03:37:48.321Z,41.03
2019-05-20T03:38:56.522Z,39.93
2019-05-20T03:40:03.353Z,38.70
2019-05-20T03:41:11.185Z,37.87
2019-05-20T03:42:17.942Z,40.93
2019-05-20T03:43:25.777Z,40.50
2019-05-20T03:44:32.551Z,38.77
2019-05-20T03:45:40.767Z,40.77
2019-05-20T03:46:47.530Z,41.30
2019-05-20T03:47:55.033Z,39.73
2019-05-20T03:49:02.172Z,40.67
2019-05-20T03:50:10.582Z,43.30
2019-05-20T03:51:17.363Z,42.97
2019-05-20T03:52:25.000Z,39.23
2019-05-20T03:53:32.164Z,41.03
2019-05-20T03:54:40.053Z,40.33
2019-05-20T03:55:47.299Z,39.73
2019-05-20T03:56:55.126Z,39.37
2019-05-20T03:58:02.500Z,38.67
2019-05-20T03:59:10.315Z,39.53
2019-05-20T04:00:20.209Z,40.80
2019-05-20T04:01:27.735Z,39.10
2019-05-20T04:02:34.981Z,40.40
2019-05-20T04:03:42.845Z,40.87
2019-05-20T04:05:01.214Z,41.30
2019-05-20T04:05:59.201Z,36.80
2019-05-20T04:07:06.062Z,39.20
2019-05-20T04:08:13.681Z,39.50
2019-05-20T04:09:20.849Z,36.67
2019-05-20T04:10:29.042Z,36.40
2019-05-20T04:11:36.147Z,37.47
2019-05-20T04:12:44.126Z,37.20
2019-05-20T04:13:51.210Z,37.83
2019-05-20T04:14:58.709Z,39.30
2019-05-20T04:16:05.506Z,40.90
2019-05-20T04:17:13.152Z,38.47
2019-05-20T04:18:20.437Z,41.17
2019-05-20T04:19:27.946Z,37.50
2019-05-20T04:20:34.895Z,37.27
2019-05-20T04:21:42.407Z,40.23
2019-05-20T04:22:49.192Z,41.43
2019-05-20T04:24:00.968Z,37.93
2019-05-20T04:25:06.034Z,37.13
2019-05-20T04:26:13.894Z,40.40
2019-05-20T04:27:20.665Z,39.40
2019-05-20T04:28:28.163Z,40.13
2019-05-20T04:29:35.114Z,39.27
2019-05-20T04:30:43.063Z,38.10
2019-05-20T04:31:49.830Z,40.50
2019-05-20T04:32:57.694Z,39.30
2019-05-20T04:34:04.646Z,41.20
2019-05-20T04:35:22.357Z,38.80
2019-05-20T04:36:21.338Z,40.17
2019-05-20T04:37:28.888Z,36.90
2019-05-20T04:38:35.700Z,37.50
2019-05-20T04:39:43.528Z,39.83
2019-05-20T04:40:50.704Z,39.67
2019-05-20T04:41:58.249Z,41.10
2019-05-20T04:43:05.128Z,40.33
2019-05-20T04:44:13.018Z,39.17
2019-05-20T04:45:20.243Z,38.00
2019-05-20T04:46:27.959Z,37.10
2019-05-20T04:47:35.632Z,40.33
2019-05-20T04:48:43.199Z,37.17
2019-05-20T04:49:50.682Z,40.43
2019-05-20T04:50:58.194Z,38.63
2019-05-20T04:52:04.953Z,39.80
2019-05-20T04:53:12.466Z,39.50
2019-05-20T04:54:19.229Z,39.77
2019-05-20T04:55:26.857Z,40.63
2019-05-20T04:56:33.642Z,39.87
2019-05-20T04:57:41.222Z,39.47
2019-05-20T04:58:48.391Z,42.53
2019-05-20T04:59:56.130Z,42.70
2019-05-20T05:01:03.004Z,39.97
2019-05-20T05:02:10.727Z,39.07
2019-05-20T05:03:17.902Z,41.83
2019-05-20T05:04:25.430Z,42.10
2019-05-20T05:05:37.488Z,40.30
2019-05-20T05:06:41.659Z,40.07
2019-05-20T05:07:49.082Z,39.97
2019-05-20T05:08:56.587Z,40.50
2019-05-20T05:10:03.354Z,40.73
2019-05-20T05:11:11.903Z,39.73
2019-05-20T05:12:18.903Z,39.53
2019-05-20T05:13:27.652Z,38.70
2019-05-20T05:14:34.838Z,38.20
2019-05-20T05:15:42.669Z,41.43
2019-05-20T05:16:49.814Z,40.37
2019-05-20T05:17:57.310Z,39.17
2019-05-20T05:19:04.177Z,38.90
2019-05-20T05:20:17.878Z,39.87
2019-05-20T05:21:20.980Z,37.17
2019-05-20T05:22:28.986Z,39.43
2019-05-20T05:23:36.073Z,38.60
2019-05-20T05:24:43.646Z,38.27
2019-05-20T05:25:50.526Z,36.80
2019-05-20T05:26:58.758Z,36.47
2019-05-20T05:28:05.767Z,36.60
2019-05-20T05:29:13.394Z,37.30
2019-05-20T05:30:20.357Z,36.23
2019-05-20T05:31:28.210Z,39.10
2019-05-20T05:32:44.843Z,38.50
2019-05-20T05:33:54.323Z,38.30
2019-05-20T05:35:01.312Z,39.00
2019-05-20T05:36:09.141Z,36.83
2019-05-20T05:37:16.347Z,38.30
2019-05-20T05:38:24.256Z,37.47
2019-05-20T05:39:31.105Z,39.90
2019-05-20T05:40:38.705Z,36.37
2019-05-20T05:41:45.486Z,37.10
2019-05-20T05:42:53.100Z,38.40
2019-05-20T05:44:00.510Z,38.30
2019-05-20T05:45:08.742Z,37.97
2019-05-20T05:46:15.500Z,36.87
2019-05-20T05:47:23.020Z,36.43
2019-05-20T05:48:29.776Z,37.20
2019-05-20T05:49:37.324Z,35.80
2019-05-20T05:50:44.383Z,38.40
2019-05-20T05:51:51.962Z,36.10
2019-05-20T05:52:59.099Z,35.77
2019-05-20T05:54:06.975Z,35.63
2019-05-20T05:55:13.751Z,35.40
2019-05-20T05:56:21.603Z,36.07
2019-05-20T05:57:28.426Z,34.97
2019-05-20T05:58:35.951Z,34.87
2019-05-20T05:59:42.711Z,34.73
2019-05-20T06:00:50.488Z,34.87
2019-05-20T06:01:57.245Z,34.60
2019-05-20T06:03:04.752Z,35.20
2019-05-20T06:04:11.494Z,35.40
2019-05-20T06:05:19.235Z,33.20
2019-05-20T06:06:26.447Z,35.90
2019-05-20T06:07:34.099Z,36.70
2019-05-20T06:08:40.846Z,35.33
2019-05-20T06:09:48.339Z,33.00
2019-05-20T06:10:55.758Z,36.40
2019-05-20T06:12:03.284Z,35.07
2019-05-20T06:13:10.447Z,34.07
2019-05-20T06:14:18.241Z,35.53
2019-05-20T06:15:26.212Z,33.27
2019-05-20T06:16:36.860Z,33.93
2019-05-20T06:17:42.204Z,36.07
2019-05-20T06:18:50.091Z,36.67
2019-05-20T06:19:56.855Z,34.00
2019-05-20T06:21:04.687Z,35.20
2019-05-20T06:22:14.343Z,37.40
2019-05-20T06:23:21.059Z,35.80
2019-05-20T06:24:27.893Z,36.10
2019-05-20T06:25:35.408Z,36.77
2019-05-20T06:26:42.550Z,37.37
2019-05-20T06:27:50.050Z,37.03
2019-05-20T06:28:56.797Z,37.90
2019-05-20T06:30:04.457Z,37.73
2019-05-20T06:31:11.818Z,35.83
2019-05-20T06:32:19.321Z,37.93
2019-05-20T06:33:26.083Z,35.53
2019-05-20T06:34:35.162Z,37.60
2019-05-20T06:35:42.328Z,35.80
2019-05-20T06:36:51.456Z,36.30
2019-05-20T06:37:59.868Z,36.67
2019-05-20T06:39:15.114Z,36.73
2019-05-20T06:40:22.074Z,33.50
2019-05-20T06:41:29.790Z,34.93
2019-05-20T06:42:36.566Z,33.77
2019-05-20T06:43:44.486Z,35.27
2019-05-20T06:44:53.232Z,35.80
2019-05-20T06:46:01.003Z,35.40
2019-05-20T06:47:07.966Z,33.90
2019-05-20T06:48:15.472Z,34.23
2019-05-20T06:49:22.223Z,35.57
2019-05-20T06:50:30.039Z,33.47
2019-05-20T06:51:38.546Z,35.40
2019-05-20T06:52:46.101Z,33.40
2019-05-20T06:53:52.967Z,33.50
2019-05-20T06:55:00.477Z,33.67
2019-05-20T06:56:07.344Z,32.77
2019-05-20T06:57:15.177Z,31.67
2019-05-20T06:58:22.459Z,31.33
2019-05-20T06:59:29.959Z,33.40
2019-05-20T07:00:40.140Z,31.07
2019-05-20T07:01:47.641Z,33.97
2019-05-20T07:02:54.399Z,33.30
2019-05-20T07:04:02.332Z,33.10
2019-05-20T07:05:09.718Z,34.40
2019-05-20T07:06:17.239Z,35.27
2019-05-20T07:07:24.391Z,34.23
2019-05-20T07:08:32.508Z,34.70
2019-05-20T07:09:39.386Z,35.20
2019-05-20T07:10:47.579Z,33.00
2019-05-20T07:11:54.355Z,35.33
2019-05-20T07:13:02.255Z,35.80
2019-05-20T07:14:08.993Z,34.70
2019-05-20T07:15:16.636Z,36.80
2019-05-20T07:16:23.406Z,35.17
2019-05-20T07:17:31.324Z,33.87
2019-05-20T07:18:38.257Z,34.17
2019-05-20T07:19:45.754Z,33.37
2019-05-20T07:20:52.534Z,33.90
2019-05-20T07:22:00.417Z,34.30
2019-05-20T07:23:07.180Z,34.60
2019-05-20T07:24:14.690Z,34.00
2019-05-20T07:25:21.543Z,34.90
2019-05-20T07:26:29.476Z,35.60
2019-05-20T07:27:36.232Z,35.23
2019-05-20T07:28:44.109Z,35.57
2019-05-20T07:29:50.860Z,36.73
2019-05-20T07:30:58.417Z,35.40
2019-05-20T07:32:05.329Z,34.83
2019-05-20T07:33:12.831Z,34.53
2019-05-20T07:34:19.894Z,36.07
2019-05-20T07:35:30.707Z,34.80
2019-05-20T07:36:36.318Z,36.20
2019-05-20T07:37:43.835Z,35.43
2019-05-20T07:38:50.583Z,36.07
2019-05-20T07:39:58.137Z,32.90
2019-05-20T07:41:05.273Z,34.03
2019-05-20T07:42:12.832Z,33.47
2019-05-20T07:43:20.032Z,33.67
2019-05-20T07:44:28.592Z,31.77
2019-05-20T07:45:37.194Z,33.47
2019-05-20T07:46:44.793Z,30.70
2019-05-20T07:47:51.892Z,32.50
2019-05-20T07:48:59.890Z,30.73
2019-05-20T07:50:07.633Z,33.83
2019-05-20T07:51:17.194Z,33.17
2019-05-20T07:52:26.899Z,32.40
2019-05-20T07:53:35.710Z,32.27
2019-05-20T07:54:42.832Z,33.57
2019-05-20T07:56:01.274Z,31.63
2019-05-20T07:57:12.571Z,34.90
2019-05-20T07:58:24.169Z,32.67
2019-05-20T07:59:34.672Z,32.73
2019-05-20T08:00:43.188Z,33.67
2019-05-20T08:01:50.258Z,32.43
2019-05-20T08:02:58.557Z,32.13
2019-05-20T08:04:05.642Z,31.90
2019-05-20T08:05:13.852Z,31.83
2019-05-20T08:06:20.674Z,33.90
2019-05-20T08:07:49.893Z,34.10
2019-05-20T08:08:37.000Z,33.30
2019-05-20T08:09:46.307Z,33.57
2019-05-20T08:10:53.037Z,32.13
2019-05-20T08:12:00.558Z,33.37
2019-05-20T08:13:07.548Z,33.50
2019-05-20T08:14:15.331Z,32.30
2019-05-20T08:15:22.095Z,33.63
2019-05-20T08:16:29.694Z,34.60
2019-05-20T08:17:36.482Z,33.20
2019-05-20T08:18:44.290Z,33.10
2019-05-20T08:19:51.111Z,33.17
2019-05-20T08:20:59.220Z,35.17
2019-05-20T08:22:05.990Z,33.73
2019-05-20T08:23:13.507Z,34.00
2019-05-20T08:24:20.735Z,34.50
2019-05-20T08:25:28.270Z,32.73
2019-05-20T08:26:35.561Z,36.20
2019-05-20T08:27:43.461Z,34.40
2019-05-20T08:28:50.960Z,34.67
2019-05-20T08:29:58.856Z,34.67
2019-05-20T08:31:05.716Z,34.00
2019-05-20T08:32:13.242Z,32.93
2019-05-20T08:33:19.999Z,32.87
2019-05-20T08:34:27.515Z,33.33
2019-05-20T08:35:34.836Z,35.60
2019-05-20T08:36:42.671Z,32.70
2019-05-20T08:37:50.245Z,34.23
2019-05-20T08:38:57.753Z,33.50
2019-05-20T08:40:05.599Z,31.20
2019-05-20T08:41:13.516Z,33.60
2019-05-20T08:42:20.420Z,31.53
2019-05-20T08:43:28.039Z,33.07
2019-05-20T08:44:35.274Z,32.33
2019-05-20T08:45:42.785Z,33.70
2019-05-20T08:46:49.657Z,32.70
2019-05-20T08:47:57.742Z,35.27
2019-05-20T08:49:09.855Z,31.80
2019-05-20T08:50:16.368Z,35.40
2019-05-20T08:51:22.847Z,34.90
2019-05-20T08:52:30.655Z,33.70
2019-05-20T08:53:37.407Z,33.77
2019-05-20T08:54:45.323Z,33.10
2019-05-20T08:55:52.181Z,32.93
2019-05-20T08:56:59.689Z,34.40
2019-05-20T08:58:06.886Z,33.20
2019-05-20T08:59:14.410Z,32.50
2019-05-20T09:00:24.470Z,34.37
2019-05-20T09:01:32.578Z,33.07
2019-05-20T09:02:39.381Z,36.90
2019-05-20T09:03:46.892Z,33.60
2019-05-20T09:04:54.022Z,35.20
2019-05-20T09:06:02.395Z,35.17
2019-05-20T09:07:09.925Z,34.90
2019-05-20T09:08:17.438Z,35.30
2019-05-20T09:09:24.321Z,34.53
2019-05-20T09:10:32.481Z,35.90
2019-05-20T09:11:39.623Z,35.77
2019-05-20T09:12:47.098Z,34.03
2019-05-20T09:13:54.396Z,35.37
2019-05-20T09:15:02.354Z,34.23
2019-05-20T09:16:09.433Z,33.50
2019-05-20T09:17:17.465Z,33.60
2019-05-20T09:18:24.252Z,34.57
2019-05-20T09:19:32.437Z,34.77
2019-05-20T09:20:39.699Z,35.13
2019-05-20T09:21:47.319Z,32.73
2019-05-20T09:22:54.444Z,32.37
2019-05-20T09:24:02.159Z,34.83
2019-05-20T09:25:10.158Z,33.40
2019-05-20T09:26:18.364Z,35.30
2019-05-20T09:27:25.139Z,33.87
2019-05-20T09:28:32.700Z,34.47
2019-05-20T09:29:39.467Z,34.27
2019-05-20T09:30:47.176Z,34.27
2019-05-20T09:31:54.261Z,34.67
2019-05-20T09:33:01.876Z,33.87
2019-05-20T09:34:09.023Z,33.00
2019-05-20T09:35:16.821Z,35.80
2019-05-20T09:36:25.904Z,35.17
2019-05-20T09:37:32.786Z,34.10
2019-05-20T09:38:40.305Z,34.83
2019-05-20T09:39:47.979Z,34.70
2019-05-20T09:40:54.764Z,34.80
2019-05-20T09:42:02.252Z,33.37
2019-05-20T09:43:09.930Z,36.97
2019-05-20T09:44:17.511Z,33.03
2019-05-20T09:45:24.301Z,35.47
2019-05-20T09:46:31.838Z,35.20
2019-05-20T09:47:39.087Z,37.27
2019-05-20T09:48:46.988Z,34.97
2019-05-20T09:49:53.824Z,37.30
2019-05-20T09:51:01.616Z,35.53
2019-05-20T09:52:09.041Z,37.40
2019-05-20T09:53:17.026Z,33.33
2019-05-20T09:54:23.789Z,36.57
2019-05-20T09:55:31.457Z,34.63
2019-05-20T09:56:38.296Z,36.03
2019-05-20T09:57:45.866Z,36.33
2019-05-20T09:58:52.979Z,36.40
2019-05-20T10:00:01.061Z,36.53
2019-05-20T10:01:07.879Z,33.57
2019-05-20T10:02:15.386Z,36.50
2019-05-20T10:03:22.165Z,36.37
2019-05-20T10:04:30.203Z,35.60
2019-05-20T10:05:38.043Z,37.27
2019-05-20T10:06:45.622Z,36.07
2019-05-20T10:07:52.399Z,34.33
2019-05-20T10:08:59.922Z,37.20
2019-05-20T10:10:08.327Z,36.03
2019-05-20T10:11:16.177Z,35.63
2019-05-20T10:12:23.229Z,36.83
2019-05-20T10:13:30.735Z,35.13
2019-05-20T10:14:37.596Z,36.23
2019-05-20T10:15:45.743Z,35.83
2019-05-20T10:16:52.594Z,35.77
2019-05-20T10:18:00.106Z,34.60
2019-05-20T10:19:07.495Z,36.63
2019-05-20T10:20:16.665Z,36.10
2019-05-20T10:21:24.013Z,35.03
2019-05-20T10:22:32.337Z,34.27
2019-05-20T10:23:39.175Z,35.30
2019-05-20T10:24:46.804Z,34.30
2019-05-20T10:25:54.670Z,32.80
2019-05-20T10:27:02.256Z,34.40
2019-05-20T10:28:09.034Z,36.40
2019-05-20T10:29:16.554Z,34.50
2019-05-20T10:30:23.818Z,34.63
2019-05-20T10:31:31.842Z,34.20
2019-05-20T10:32:39.120Z,36.57
2019-05-20T10:33:46.601Z,34.00
2019-05-20T10:34:53.781Z,35.27
2019-05-20T10:36:01.675Z,35.40
2019-05-20T10:37:08.632Z,33.97
2019-05-20T10:38:16.214Z,34.80
2019-05-20T10:39:23.214Z,36.97
2019-05-20T10:40:30.732Z,33.83
2019-05-20T10:41:37.552Z,33.70
2019-05-20T10:42:45.207Z,34.50
2019-05-20T10:43:52.366Z,36.20
2019-05-20T10:45:00.246Z,36.07
2019-05-20T10:46:07.513Z,35.50
2019-05-20T10:47:15.393Z,35.00
2019-05-20T10:48:22.174Z,35.03
2019-05-20T10:49:29.697Z,38.03
2019-05-20T10:50:36.769Z,33.57
2019-05-20T10:51:44.359Z,34.93
2019-05-20T10:52:51.638Z,34.70
2019-05-20T10:53:59.495Z,34.90
2019-05-20T10:55:07.711Z,32.60
2019-05-20T10:56:15.691Z,33.00
2019-05-20T10:57:22.634Z,33.17
2019-05-20T10:58:30.130Z,32.00
2019-05-20T10:59:36.927Z,32.33
2019-05-20T11:01:01.215Z,33.30
2019-05-20T11:01:53.325Z,31.30
2019-05-20T11:03:00.839Z,33.67
2019-05-20T11:04:07.632Z,33.43
2019-05-20T11:05:15.339Z,34.20
2019-05-20T11:06:22.190Z,30.27
2019-05-20T11:07:29.732Z,32.10
2019-05-20T11:08:36.874Z,31.20
2019-05-20T11:09:44.444Z,30.17
2019-05-20T11:10:51.339Z,30.40
2019-05-20T11:11:59.017Z,30.50
2019-05-20T11:13:05.783Z,30.43
2019-05-20T11:14:13.595Z,30.73
2019-05-20T11:15:20.583Z,30.70
2019-05-20T11:16:28.366Z,31.07
2019-05-20T11:17:35.194Z,32.10
2019-05-20T11:18:42.696Z,30.03
2019-05-20T11:19:49.466Z,30.80
2019-05-20T11:20:57.242Z,29.97
2019-05-20T11:22:04.097Z,30.53
2019-05-20T11:23:11.956Z,29.60
2019-05-20T11:24:19.037Z,29.97
2019-05-20T11:25:26.537Z,30.60
2019-05-20T11:26:33.714Z,29.77
2019-05-20T11:27:41.520Z,30.93
2019-05-20T11:28:48.692Z,29.30
2019-05-20T11:29:56.483Z,29.43
2019-05-20T11:31:03.674Z,31.17
2019-05-20T11:32:11.358Z,28.80
2019-05-20T11:33:18.107Z,30.30
2019-05-20T11:34:25.616Z,30.63
2019-05-20T11:35:33.553Z,30.40
2019-05-20T11:36:41.813Z,28.37
2019-05-20T11:37:48.662Z,30.20
2019-05-20T11:38:56.793Z,28.33
2019-05-20T11:40:04.837Z,30.50
2019-05-20T11:41:13.152Z,29.60
2019-05-20T11:42:20.006Z,30.50
2019-05-20T11:43:27.517Z,30.23
2019-05-20T11:44:35.158Z,28.67
2019-05-20T11:45:42.662Z,28.90
2019-05-20T11:46:49.820Z,29.90
2019-05-20T11:47:57.440Z,27.97
2019-05-20T11:49:04.203Z,27.53
2019-05-20T11:50:13.195Z,28.63
2019-05-20T11:51:20.388Z,30.03
2019-05-20T11:52:28.186Z,30.20
2019-05-20T11:53:35.336Z,30.87
2019-05-20T11:54:43.560Z,30.77
2019-05-20T11:55:50.850Z,29.37
2019-05-20T11:56:58.361Z,29.60
2019-05-20T11:58:15.259Z,29.27
2019-05-20T11:59:15.102Z,28.70
2019-05-20T12:00:22.730Z,29.47
2019-05-20T12:01:30.658Z,29.70
2019-05-20T12:02:38.518Z,29.43
2019-05-20T12:03:46.513Z,31.00
2019-05-20T12:04:53.290Z,29.50
2019-05-20T12:06:00.885Z,30.17
2019-05-20T12:07:08.650Z,29.87
2019-05-20T12:08:16.698Z,30.60
2019-05-20T12:09:23.750Z,32.97
2019-05-20T12:10:31.400Z,29.43
2019-05-20T12:11:38.609Z,30.27
2019-05-20T12:12:46.322Z,27.67
2019-05-20T12:13:53.179Z,31.00
2019-05-20T12:15:00.820Z,28.60
2019-05-20T12:16:08.172Z,29.07
2019-05-20T12:17:16.067Z,30.27
2019-05-20T12:18:22.838Z,29.40
2019-05-20T12:19:30.356Z,29.20
2019-05-20T12:20:37.118Z,28.80
2019-05-20T12:21:44.700Z,31.47
2019-05-20T12:22:52.039Z,28.97
2019-05-20T12:23:59.594Z,31.27
2019-05-20T12:25:07.239Z,28.33
2019-05-20T12:26:14.730Z,31.37
2019-05-20T12:27:21.509Z,29.30
2019-05-20T12:28:29.473Z,28.73
2019-05-20T12:29:36.608Z,28.90
2019-05-20T12:30:44.128Z,27.40
2019-05-20T12:31:50.951Z,30.00
2019-05-20T12:33:17.023Z,29.07
2019-05-20T12:34:07.460Z,27.40
2019-05-20T12:35:15.095Z,29.07
2019-05-20T12:36:22.242Z,29.30
2019-05-20T12:37:30.100Z,26.37
2019-05-20T12:38:36.924Z,28.70
2019-05-20T12:39:44.431Z,27.10
2019-05-20T12:40:51.194Z,29.17
2019-05-20T12:41:59.376Z,29.17
2019-05-20T12:43:06.456Z,27.63
2019-05-20T12:44:14.018Z,29.50
2019-05-20T12:45:21.437Z,28.70
2019-05-20T12:46:29.638Z,28.83
2019-05-20T12:47:36.824Z,29.67
2019-05-20T12:48:44.460Z,30.37
2019-05-20T12:49:51.455Z,29.47
2019-05-20T12:50:59.281Z,29.80
2019-05-20T12:52:06.955Z,29.60
2019-05-20T12:53:25.956Z,29.47
2019-05-20T12:54:33.225Z,29.37
2019-05-20T12:55:40.782Z,30.40
2019-05-20T12:56:47.878Z,32.00
2019-05-20T12:57:55.675Z,30.53
2019-05-20T12:59:02.438Z,31.43
2019-05-20T13:00:11.122Z,30.03
2019-05-20T13:01:18.212Z,30.03
2019-05-20T13:02:26.019Z,30.63
2019-05-20T13:03:32.772Z,31.47
2019-05-20T13:04:40.306Z,29.63
2019-05-20T13:05:47.421Z,29.80
2019-05-20T13:06:54.919Z,31.20
2019-05-20T13:08:01.710Z,29.67
2019-05-20T13:09:10.507Z,31.77
2019-05-20T13:10:29.114Z,31.70
2019-05-20T13:11:27.286Z,33.23
2019-05-20T13:12:34.482Z,29.27
2019-05-20T13:13:42.002Z,30.53
2019-05-20T13:14:48.994Z,31.80
2019-05-20T13:15:56.494Z,30.70
2019-05-20T13:17:03.687Z,32.90
2019-05-20T13:18:11.310Z,32.37
2019-05-20T13:19:18.139Z,30.93
2019-05-20T13:20:25.680Z,31.13
2019-05-20T13:21:32.798Z,31.30
2019-05-20T13:22:40.385Z,30.03
2019-05-20T13:23:48.923Z,29.93
2019-05-20T13:24:56.396Z,30.47
2019-05-20T13:26:03.635Z,30.90
2019-05-20T13:27:11.477Z,30.80
2019-05-20T13:28:18.238Z,28.20
2019-05-20T13:29:25.828Z,30.40
2019-05-20T13:30:32.588Z,31.87
2019-05-20T13:31:40.243Z,31.90
2019-05-20T13:32:47.013Z,29.80
2019-05-20T13:33:54.528Z,31.23
2019-05-20T13:35:01.298Z,32.20
2019-05-20T13:36:09.247Z,32.27
2019-05-20T13:37:16.064Z,30.60
2019-05-20T13:38:23.599Z,31.10
2019-05-20T13:39:30.333Z,32.33
2019-05-20T13:40:46.398Z,29.50
2019-05-20T13:41:46.322Z,31.17
2019-05-20T13:42:54.222Z,30.33
2019-05-20T13:44:01.006Z,31.00
2019-05-20T13:45:09.815Z,31.30
2019-05-20T13:46:16.638Z,30.17
2019-05-20T13:47:24.159Z,30.77
2019-05-20T13:48:31.094Z,30.70
2019-05-20T13:49:38.744Z,31.33
2019-05-20T13:50:45.806Z,31.57
2019-05-20T13:51:53.337Z,32.60
2019-05-20T13:53:00.302Z,31.07
2019-05-20T13:54:08.199Z,29.77
2019-05-20T13:55:15.563Z,31.27
2019-05-20T13:56:23.116Z,31.23
2019-05-20T13:57:30.414Z,30.93
2019-05-20T13:58:38.402Z,30.07
2019-05-20T13:59:46.083Z,31.70
2019-05-20T14:00:54.032Z,30.80
2019-05-20T14:02:00.974Z,31.10
2019-05-20T14:03:08.926Z,31.87
2019-05-20T14:04:15.976Z,31.23
2019-05-20T14:05:23.508Z,31.27
2019-05-20T14:06:30.370Z,31.00
2019-05-20T14:07:38.077Z,31.10
2019-05-20T14:08:45.237Z,28.77
2019-05-20T14:09:53.153Z,31.10
2019-05-20T14:11:04.368Z,30.00
2019-05-20T14:12:09.216Z,30.60
2019-05-20T14:13:16.356Z,29.90
2019-05-20T14:14:24.294Z,30.50
2019-05-20T14:15:31.410Z,28.97
2019-05-20T14:16:38.915Z,30.87
2019-05-20T14:17:45.776Z,30.10
2019-05-20T14:18:53.347Z,29.50
2019-05-20T14:20:00.164Z,29.73
2019-05-20T14:21:08.191Z,28.80
2019-05-20T14:22:15.447Z,30.03
2019-05-20T14:23:22.969Z,29.27
2019-05-20T14:24:30.289Z,28.80
2019-05-20T14:25:39.592Z,30.17
2019-05-20T14:26:46.888Z,30.43
2019-05-20T14:27:54.753Z,28.90
2019-05-20T14:29:01.664Z,30.40
2019-05-20T14:30:09.922Z,31.30
2019-05-20T14:31:16.687Z,30.40